createdAt,value
2019-03-21T00:04:00.905Z,31
2019-03-21T00:09:00.952Z,29
2019-03-21T00:14:07.445Z,32
2019-03-21T00:19:00.811Z,29
2019-03-21T00:24:00.838Z,35
2019-03-21T00:29:00.818Z,32
2019-03-21T00:34:00.829Z,35
2019-03-21T00:39:00.808Z,34
2019-03-21T00:44:00.783Z,33
2019-03-21T00:49:00.785Z,32
2019-03-21T00:54:00.761Z,35
2019-03-21T00:59:00.801Z,35
2019-03-21T01:04:00.803Z,37
2019-03-21T01:09:00.770Z,36
2019-03-21T01:14:00.779Z,39
2019-03-21T01:19:00.795Z,37
2019-03-21T01:24:00.808Z,38
2019-03-21T01:29:00.786Z,39
2019-03-21T01:34:00.728Z,39
2019-03-21T01:39:00.753Z,40
2019-03-21T01:44:00.745Z,39
2019-03-21T01:49:00.713Z,40
2019-03-21T01:54:00.743Z,40
2019-03-21T01:59:00.719Z,37
2019-03-21T02:04:00.762Z,40
2019-03-21T02:09:00.690Z,40
2019-03-21T02:14:00.675Z,39
2019-03-21T02:19:00.705Z,39
2019-03-21T02:24:00.684Z,44
2019-03-21T02:29:00.734Z,44
2019-03-21T02:34:00.664Z,43
2019-03-21T02:39:00.688Z,41
2019-03-21T02:44:00.687Z,43
2019-03-21T02:49:00.695Z,42
2019-03-21T02:54:00.675Z,41
2019-03-21T02:59:00.677Z,42
2019-03-21T03:04:00.681Z,42
2019-03-21T03:09:00.679Z,44
2019-03-21T03:14:04.756Z,42
2019-03-21T03:19:00.638Z,44
2019-03-21T03:24:00.638Z,41
2019-03-21T03:29:00.648Z,42
2019-03-21T03:34:00.651Z,41
2019-03-21T03:39:00.610Z,45
2019-03-21T03:44:00.607Z,45
2019-03-21T03:49:00.643Z,42
2019-03-21T03:54:00.578Z,43
2019-03-21T03:59:00.599Z,42
2019-03-21T04:04:00.603Z,43
2019-03-21T04:09:00.569Z,44
2019-03-21T04:14:00.590Z,42
2019-03-21T04:19:00.624Z,44
2019-03-21T04:24:00.584Z,42
2019-03-21T04:29:00.569Z,43
2019-03-21T04:34:00.559Z,44
2019-03-21T04:39:00.576Z,41
2019-03-21T04:44:00.541Z,43
2019-03-21T04:49:00.508Z,42
2019-03-21T04:54:00.558Z,44
2019-03-21T04:59:00.528Z,45
2019-03-21T05:04:00.575Z,45
2019-03-21T05:09:00.508Z,45
2019-03-21T05:14:00.501Z,43
2019-03-21T05:19:00.480Z,42
2019-03-21T05:24:00.483Z,44
2019-03-21T05:29:00.535Z,43
2019-03-21T05:34:00.552Z,42
2019-03-21T05:39:00.533Z,44
2019-03-21T05:44:00.451Z,43
2019-03-21T05:49:00.573Z,42
2019-03-21T05:54:00.498Z,41
2019-03-21T05:59:00.471Z,40
2019-03-21T06:04:00.460Z,42
2019-03-21T06:09:00.575Z,41
2019-03-21T06:14:00.450Z,41
2019-03-21T06:19:00.470Z,39
2019-03-21T06:24:00.528Z,41
2019-03-21T06:29:00.416Z,40
2019-03-21T06:34:00.442Z,40
2019-03-21T06:39:00.492Z,40
2019-03-21T06:44:00.374Z,36
2019-03-21T06:49:00.401Z,40
2019-03-21T06:54:00.392Z,42
2019-03-21T06:59:00.418Z,40
2019-03-21T07:04:07.656Z,39
2019-03-21T07:09:00.393Z,38
2019-03-21T07:14:00.391Z,39
2019-03-21T07:19:00.342Z,36
2019-03-21T07:24:00.417Z,38
2019-03-21T07:29:00.327Z,37
2019-03-21T07:34:00.353Z,35
2019-03-21T07:39:00.671Z,36
2019-03-21T07:44:00.340Z,33
2019-03-21T07:49:00.307Z,33
2019-03-21T07:54:00.343Z,34
2019-03-21T07:59:00.308Z,33
2019-03-21T08:04:03.299Z,32
2019-03-21T08:09:00.345Z,33
2019-03-21T08:14:00.309Z,34
2019-03-21T08:19:00.276Z,35
2019-03-21T08:24:00.301Z,31
2019-03-21T08:29:00.418Z,33
2019-03-21T08:34:00.261Z,33
2019-03-21T08:39:00.260Z,32
2019-03-21T08:44:00.262Z,32
2019-03-21T08:49:00.251Z,32
2019-03-21T08:54:00.256Z,32
2019-03-21T08:59:00.259Z,32
2019-03-21T09:04:00.272Z,33
2019-03-21T09:09:00.274Z,32
2019-03-21T09:14:00.240Z,32
2019-03-21T09:19:00.242Z,32
2019-03-21T09:24:00.248Z,36
2019-03-21T09:29:00.203Z,33
2019-03-21T09:34:00.228Z,35
2019-03-21T09:39:00.268Z,35
2019-03-21T09:44:00.186Z,36
2019-03-21T09:49:00.190Z,32
2019-03-21T09:54:10.062Z,33
2019-03-21T09:59:00.187Z,33
2019-03-21T10:04:00.179Z,34
2019-03-21T10:09:00.203Z,34
2019-03-21T10:14:00.172Z,33
2019-03-21T10:19:00.182Z,35
2019-03-21T10:24:00.156Z,34
2019-03-21T10:29:00.211Z,33
2019-03-21T10:34:00.148Z,36
2019-03-21T10:39:00.192Z,35
2019-03-21T10:44:00.156Z,35
2019-03-21T10:49:00.100Z,35
2019-03-21T10:54:00.129Z,33
2019-03-21T10:59:00.109Z,38
2019-03-21T11:04:00.144Z,34
2019-03-21T11:09:00.104Z,31
2019-03-21T11:14:00.102Z,31
2019-03-21T11:19:00.136Z,33
2019-03-21T11:24:00.122Z,33
2019-03-21T11:29:00.089Z,33
2019-03-21T11:34:00.070Z,31
2019-03-21T11:39:00.097Z,30
2019-03-21T11:44:00.097Z,30
2019-03-21T11:49:01.458Z,27
2019-03-21T11:54:00.055Z,31
2019-03-21T11:59:00.081Z,31
2019-03-21T12:04:00.068Z,31
2019-03-21T12:09:00.058Z,30
2019-03-21T12:14:00.083Z,30
2019-03-21T12:19:00.056Z,31
2019-03-21T12:24:00.000Z,30
2019-03-21T12:29:00.059Z,31
2019-03-21T12:34:00.040Z,31
2019-03-21T12:38:59.995Z,29
2019-03-21T12:44:00.004Z,29
2019-03-21T12:49:00.059Z,29
2019-03-21T12:54:00.055Z,29
2019-03-21T12:58:59.978Z,30
2019-03-21T13:03:59.988Z,30
2019-03-21T13:08:59.993Z,31
2019-03-21T13:13:59.970Z,30
2019-03-21T13:18:59.996Z,27
2019-03-21T13:23:59.992Z,27
2019-03-21T13:28:59.968Z,25
2019-03-21T13:34:00.004Z,25
2019-03-21T13:38:59.972Z,28
2019-03-21T13:43:59.935Z,22
2019-03-21T13:48:59.930Z,24
2019-03-21T13:53:59.972Z,23
2019-03-21T13:58:59.937Z,22
2019-03-21T14:04:02.116Z,24
2019-03-21T14:09:01.477Z,24
2019-03-21T14:13:59.940Z,21
2019-03-21T14:18:59.959Z,20
2019-03-21T14:23:59.919Z,21
2019-03-21T14:28:59.894Z,21
2019-03-21T14:33:59.935Z,22
2019-03-21T14:38:59.892Z,21
2019-03-21T14:43:59.892Z,24
2019-03-21T14:48:59.865Z,22
2019-03-21T14:53:59.853Z,24
2019-03-21T14:58:59.926Z,16
2019-03-21T15:03:59.959Z,20
2019-03-21T15:08:59.875Z,20
2019-03-21T15:13:59.881Z,17
2019-03-21T15:18:59.876Z,18
2019-03-21T15:24:00.111Z,21
2019-03-21T15:28:59.850Z,22
2019-03-21T15:33:59.849Z,22
2019-03-21T15:38:59.831Z,22
2019-03-21T15:43:59.801Z,21
2019-03-21T15:48:59.857Z,23
2019-03-21T15:53:59.923Z,21
2019-03-21T15:58:59.825Z,21
2019-03-21T16:03:59.816Z,25
2019-03-21T16:08:59.772Z,22
2019-03-21T16:13:59.796Z,22
2019-03-21T16:18:59.840Z,26
2019-03-21T16:24:05.909Z,26
2019-03-21T16:29:00.553Z,29
2019-03-21T16:34:00.568Z,29
2019-03-21T16:39:00.575Z,26
2019-03-21T16:44:00.515Z,29
2019-03-21T16:49:00.539Z,30
2019-03-21T16:54:00.534Z,28
2019-03-21T16:59:00.526Z,30
2019-03-21T17:04:01.242Z,31
2019-03-21T17:09:01.264Z,29
2019-03-21T17:14:01.253Z,32
2019-03-21T17:19:01.283Z,33
2019-03-21T17:24:01.278Z,35
2019-03-21T17:29:01.208Z,37
2019-03-21T17:34:04.302Z,34
2019-03-21T17:39:01.216Z,33
2019-03-21T17:44:01.224Z,35
2019-03-21T17:49:01.199Z,35
2019-03-21T17:54:01.177Z,35
2019-03-21T17:59:01.219Z,35
2019-03-21T18:04:01.172Z,35
2019-03-21T18:09:01.173Z,35
2019-03-21T18:14:01.227Z,34
2019-03-21T18:19:01.172Z,32
2019-03-21T18:24:01.152Z,33
2019-03-21T18:29:01.238Z,33
2019-03-21T18:34:01.135Z,34
2019-03-21T18:39:01.127Z,34
2019-03-21T18:44:01.185Z,33
2019-03-21T18:49:01.133Z,36
2019-03-21T18:54:01.125Z,33
2019-03-21T18:59:01.130Z,33
2019-03-21T19:04:01.137Z,35
2019-03-21T19:09:01.095Z,33
2019-03-21T19:14:01.144Z,37
2019-03-21T19:19:01.091Z,37
2019-03-21T19:24:01.412Z,36
2019-03-21T19:29:01.073Z,37
2019-03-21T19:34:01.101Z,38
2019-03-21T19:39:01.081Z,41
2019-03-21T19:44:01.098Z,42
2019-03-21T19:49:01.041Z,43
2019-03-21T19:54:01.046Z,45
2019-03-21T19:59:01.373Z,43
2019-03-21T20:04:01.035Z,46
2019-03-21T20:09:01.030Z,46
2019-03-21T20:14:04.222Z,47
2019-03-21T20:19:01.066Z,49
2019-03-21T20:24:01.146Z,51
2019-03-21T20:29:01.028Z,52
2019-03-21T20:34:01.035Z,57
2019-03-21T20:39:00.988Z,67
2019-03-21T20:44:00.986Z,69
2019-03-21T20:49:01.315Z,63
2019-03-21T20:54:00.996Z,64
2019-03-21T20:59:00.966Z,65
2019-03-21T21:04:01.025Z,65
2019-03-21T21:09:00.972Z,60
2019-03-21T21:14:00.976Z,60
2019-03-21T21:19:00.958Z,59
2019-03-21T21:24:01.000Z,61
2019-03-21T21:29:00.966Z,64
2019-03-21T21:34:00.953Z,57
2019-03-21T21:39:00.917Z,61
2019-03-21T21:44:00.944Z,57
2019-03-21T21:49:00.955Z,59
2019-03-21T21:54:00.963Z,54
2019-03-21T21:59:00.943Z,58
2019-03-21T22:04:05.275Z,62
2019-03-21T22:09:00.949Z,57
2019-03-21T22:14:00.918Z,55
2019-03-21T22:19:00.916Z,57
2019-03-21T22:24:00.908Z,53
2019-03-21T22:29:00.936Z,54
2019-03-21T22:34:00.903Z,52
2019-03-21T22:39:00.894Z,52
2019-03-21T22:44:00.854Z,52
2019-03-21T22:49:00.930Z,51
2019-03-21T22:54:00.898Z,51
2019-03-21T22:59:00.854Z,52
2019-03-21T23:04:03.049Z,50
2019-03-21T23:09:00.886Z,51
2019-03-21T23:14:00.832Z,49
2019-03-21T23:19:00.870Z,51
2019-03-21T23:24:00.821Z,48
2019-03-21T23:29:00.812Z,50
2019-03-21T23:34:00.867Z,49
2019-03-21T23:39:00.861Z,48
2019-03-21T23:44:00.798Z,47
2019-03-21T23:49:00.836Z,47
2019-03-21T23:54:00.863Z,48
2019-03-21T23:59:00.804Z,46
